sensor_id;sensor_type;location;lat;lon;timestamp;temperature;humidity
5218;DHT22;26539;51.064;6.346;2023-07-09T00:00:17;25.10;99.90
5218;DHT22;26539;51.064;6.346;2023-07-09T00:02:44;25.00;99.90
5218;DHT22;26539;51.064;6.346;2023-07-09T00:05:16;24.90;99.90
5218;DHT22;26539;51.064;6.346;2023-07-09T00:07:44;24.90;99.90
5218;DHT22;26539;51.064;6.346;2023-07-09T00:10:17;24.80;99.90
5218;DHT22;26539;51.064;6.346;2023-07-09T00:12:43;24.70;99.90
5218;DHT22;26539;51.064;6.346;2023-07-09T00:15:11;24.60;99.90
5218;DHT22;26539;51.064;6.346;2023-07-09T00:17:37;24.50;99.90
5218;DHT22;26539;51.064;6.346;2023-07-09T00:20:06;24.40;99.90
5218;DHT22;26539;51.064;6.346;2023-07-09T00:22:39;24.40;99.90
5218;DHT22;26539;51.064;6.346;2023-07-09T00:25:05;24.40;99.90
5218;DHT22;26539;51.064;6.346;2023-07-09T00:27:30;24.50;99.90
5218;DHT22;26539;51.064;6.346;2023-07-09T00:29:56;24.50;99.90
5218;DHT22;26539;51.064;6.346;2023-07-09T00:32:21;24.50;99.90
5218;DHT22;26539;51.064;6.346;2023-07-09T00:34:47;24.50;99.90
5218;DHT22;26539;51.064;6.346;2023-07-09T00:37:18;24.50;99.90
5218;DHT22;26539;51.064;6.346;2023-07-09T00:39:48;24.50;99.90
5218;DHT22;26539;51.064;6.346;2023-07-09T00:42:20;24.50;99.90
5218;DHT22;26539;51.064;6.346;2023-07-09T00:44:50;24.50;99.90
5218;DHT22;26539;51.064;6.346;2023-07-09T00:48:02;24.50;99.90
5218;DHT22;26539;51.064;6.346;2023-07-09T00:50:46;24.50;99.90
5218;DHT22;26539;51.064;6.346;2023-07-09T00:53:33;24.50;99.90
5218;DHT22;26539;51.064;6.346;2023-07-09T00:56:06;24.50;99.90
5218;DHT22;26539;51.064;6.346;2023-07-09T00:58:40;24.50;99.90
5218;DHT22;26539;51.064;6.346;2023-07-09T01:01:09;24.50;99.90
5218;DHT22;26539;51.064;6.346;2023-07-09T01:03:49;24.50;99.90
5218;DHT22;26539;51.064;6.346;2023-07-09T01:06:23;24.40;99.90
5218;DHT22;26539;51.064;6.346;2023-07-09T01:08:51;24.40;99.90
5218;DHT22;26539;51.064;6.346;2023-07-09T01:11:20;24.40;99.90
5218;DHT22;26539;51.064;6.346;2023-07-09T01:13:48;24.30;99.90
5218;DHT22;26539;51.064;6.346;2023-07-09T01:16:16;24.30;99.90
5218;DHT22;26539;51.064;6.346;2023-07-09T01:18:42;24.20;99.90
5218;DHT22;26539;51.064;6.346;2023-07-09T01:21:10;24.20;99.90
5218;DHT22;26539;51.064;6.346;2023-07-09T01:23:41;24.20;99.90
5218;DHT22;26539;51.064;6.346;2023-07-09T01:26:10;24.20;99.90
5218;DHT22;26539;51.064;6.346;2023-07-09T01:28:36;24.10;99.90
5218;DHT22;26539;51.064;6.346;2023-07-09T01:31:02;24.10;99.90
5218;DHT22;26539;51.064;6.346;2023-07-09T01:33:30;24.10;99.90
5218;DHT22;26539;51.064;6.346;2023-07-09T01:35:55;24.10;99.90
5218;DHT22;26539;51.064;6.346;2023-07-09T01:38:26;24.10;99.90
5218;DHT22;26539;51.064;6.346;2023-07-09T01:40:56;24.00;99.90
5218;DHT22;26539;51.064;6.346;2023-07-09T01:43:21;24.00;99.90
5218;DHT22;26539;51.064;6.346;2023-07-09T01:45:47;24.10;99.90
5218;DHT22;26539;51.064;6.346;2023-07-09T01:48:15;24.10;99.90
5218;DHT22;26539;51.064;6.346;2023-07-09T01:50:42;24.10;99.90
5218;DHT22;26539;51.064;6.346;2023-07-09T01:53:10;24.10;99.90
5218;DHT22;26539;51.064;6.346;2023-07-09T01:55:36;24.10;99.90
5218;DHT22;26539;51.064;6.346;2023-07-09T01:58:02;24.00;99.90
5218;DHT22;26539;51.064;6.346;2023-07-09T02:00:32;24.00;99.90
5218;DHT22;26539;51.064;6.346;2023-07-09T02:02:58;23.90;99.90
5218;DHT22;26539;51.064;6.346;2023-07-09T02:05:25;23.90;99.90
5218;DHT22;26539;51.064;6.346;2023-07-09T02:07:52;23.90;99.90
5218;DHT22;26539;51.064;6.346;2023-07-09T02:10:18;23.90;99.90
5218;DHT22;26539;51.064;6.346;2023-07-09T02:12:44;23.90;99.90
5218;DHT22;26539;51.064;6.346;2023-07-09T02:15:10;23.80;99.90
5218;DHT22;26539;51.064;6.346;2023-07-09T02:17:36;23.80;99.90
5218;DHT22;26539;51.064;6.346;2023-07-09T02:20:02;23.80;99.90
5218;DHT22;26539;51.064;6.346;2023-07-09T02:22:29;23.70;99.90
5218;DHT22;26539;51.064;6.346;2023-07-09T02:24:55;23.70;99.90
5218;DHT22;26539;51.064;6.346;2023-07-09T02:27:21;23.70;99.90
5218;DHT22;26539;51.064;6.346;2023-07-09T02:29:47;23.70;99.90
5218;DHT22;26539;51.064;6.346;2023-07-09T02:32:18;23.70;99.90
5218;DHT22;26539;51.064;6.346;2023-07-09T02:34:44;23.60;99.90
5218;DHT22;26539;51.064;6.346;2023-07-09T02:37:17;23.70;99.90
5218;DHT22;26539;51.064;6.346;2023-07-09T02:39:45;23.70;99.90
5218;DHT22;26539;51.064;6.346;2023-07-09T02:42:13;23.70;99.90
5218;DHT22;26539;51.064;6.346;2023-07-09T02:44:40;23.70;99.90
5218;DHT22;26539;51.064;6.346;2023-07-09T02:47:09;23.60;99.90
5218;DHT22;26539;51.064;6.346;2023-07-09T02:49:35;23.60;99.90
5218;DHT22;26539;51.064;6.346;2023-07-09T02:52:00;23.60;99.90
5218;DHT22;26539;51.064;6.346;2023-07-09T02:54:26;23.60;99.90
5218;DHT22;26539;51.064;6.346;2023-07-09T02:56:52;23.60;99.90
5218;DHT22;26539;51.064;6.346;2023-07-09T02:59:17;23.60;99.90
5218;DHT22;26539;51.064;6.346;2023-07-09T03:01:43;23.50;99.90
5218;DHT22;26539;51.064;6.346;2023-07-09T03:04:09;23.50;99.90
5218;DHT22;26539;51.064;6.346;2023-07-09T03:06:36;23.50;99.90
5218;DHT22;26539;51.064;6.346;2023-07-09T03:09:04;23.50;99.90
5218;DHT22;26539;51.064;6.346;2023-07-09T03:11:31;23.30;99.90
5218;DHT22;26539;51.064;6.346;2023-07-09T03:13:58;23.30;99.90
5218;DHT22;26539;51.064;6.346;2023-07-09T03:16:26;23.30;99.90
5218;DHT22;26539;51.064;6.346;2023-07-09T03:18:52;23.30;99.90
5218;DHT22;26539;51.064;6.346;2023-07-09T03:21:18;23.30;99.90
5218;DHT22;26539;51.064;6.346;2023-07-09T03:23:44;23.30;99.90
5218;DHT22;26539;51.064;6.346;2023-07-09T03:26:10;23.30;99.90
5218;DHT22;26539;51.064;6.346;2023-07-09T03:28:35;23.30;99.90
5218;DHT22;26539;51.064;6.346;2023-07-09T03:31:01;23.20;99.90
5218;DHT22;26539;51.064;6.346;2023-07-09T03:33:26;23.00;1.00
5218;DHT22;26539;51.064;6.346;2023-07-09T03:35:52;22.90;1.00
5218;DHT22;26539;51.064;6.346;2023-07-09T03:38:18;22.90;1.00
5218;DHT22;26539;51.064;6.346;2023-07-09T03:40:44;22.90;1.00
5218;DHT22;26539;51.064;6.346;2023-07-09T03:43:10;22.90;1.00
5218;DHT22;26539;51.064;6.346;2023-07-09T03:45:36;22.90;1.00
5218;DHT22;26539;51.064;6.346;2023-07-09T03:48:04;23.00;1.00
5218;DHT22;26539;51.064;6.346;2023-07-09T03:50:30;23.00;1.00
5218;DHT22;26539;51.064;6.346;2023-07-09T03:52:55;23.00;1.00
5218;DHT22;26539;51.064;6.346;2023-07-09T03:55:21;23.00;1.00
5218;DHT22;26539;51.064;6.346;2023-07-09T03:57:47;23.00;1.00
5218;DHT22;26539;51.064;6.346;2023-07-09T04:00:13;23.00;1.00
5218;DHT22;26539;51.064;6.346;2023-07-09T04:02:42;23.00;1.00
5218;DHT22;26539;51.064;6.346;2023-07-09T04:05:11;23.00;1.00
5218;DHT22;26539;51.064;6.346;2023-07-09T04:07:37;23.00;1.00
5218;DHT22;26539;51.064;6.346;2023-07-09T04:10:04;22.90;1.00
5218;DHT22;26539;51.064;6.346;2023-07-09T04:12:30;22.90;1.00
5218;DHT22;26539;51.064;6.346;2023-07-09T04:14:55;23.00;1.00
5218;DHT22;26539;51.064;6.346;2023-07-09T04:17:21;23.10;1.00
5218;DHT22;26539;51.064;6.346;2023-07-09T04:19:51;23.10;1.00
5218;DHT22;26539;51.064;6.346;2023-07-09T04:22:17;23.20;1.00
5218;DHT22;26539;51.064;6.346;2023-07-09T04:24:43;23.20;1.00
5218;DHT22;26539;51.064;6.346;2023-07-09T04:27:08;23.20;1.00
5218;DHT22;26539;51.064;6.346;2023-07-09T04:29:34;23.10;1.00
5218;DHT22;26539;51.064;6.346;2023-07-09T04:32:04;23.10;1.00
5218;DHT22;26539;51.064;6.346;2023-07-09T04:34:30;23.10;1.00
5218;DHT22;26539;51.064;6.346;2023-07-09T04:36:56;23.10;1.00
5218;DHT22;26539;51.064;6.346;2023-07-09T04:39:21;23.10;1.00
5218;DHT22;26539;51.064;6.346;2023-07-09T04:41:47;23.10;1.00
5218;DHT22;26539;51.064;6.346;2023-07-09T04:44:13;23.10;1.00
5218;DHT22;26539;51.064;6.346;2023-07-09T04:46:39;23.10;1.00
5218;DHT22;26539;51.064;6.346;2023-07-09T04:49:05;23.10;1.00
5218;DHT22;26539;51.064;6.346;2023-07-09T04:51:30;23.20;1.00
5218;DHT22;26539;51.064;6.346;2023-07-09T04:53:56;23.30;1.00
5218;DHT22;26539;51.064;6.346;2023-07-09T04:56:21;23.40;1.00
5218;DHT22;26539;51.064;6.346;2023-07-09T04:58:47;23.30;1.00
5218;DHT22;26539;51.064;6.346;2023-07-09T05:01:13;23.30;1.00
5218;DHT22;26539;51.064;6.346;2023-07-09T05:03:38;23.50;1.00
5218;DHT22;26539;51.064;6.346;2023-07-09T05:06:04;23.70;1.00
5218;DHT22;26539;51.064;6.346;2023-07-09T05:08:30;23.90;1.00
5218;DHT22;26539;51.064;6.346;2023-07-09T05:10:57;23.90;1.00
5218;DHT22;26539;51.064;6.346;2023-07-09T05:13:25;24.00;1.00
5218;DHT22;26539;51.064;6.346;2023-07-09T05:15:52;23.90;1.00
5218;DHT22;26539;51.064;6.346;2023-07-09T05:18:18;24.00;1.00
5218;DHT22;26539;51.064;6.346;2023-07-09T05:20:45;24.20;99.90
5218;DHT22;26539;51.064;6.346;2023-07-09T05:23:13;24.30;99.90
5218;DHT22;26539;51.064;6.346;2023-07-09T05:25:38;24.40;99.90
5218;DHT22;26539;51.064;6.346;2023-07-09T05:28:05;24.50;99.90
5218;DHT22;26539;51.064;6.346;2023-07-09T05:30:31;24.60;99.90
5218;DHT22;26539;51.064;6.346;2023-07-09T05:32:56;24.80;99.90
5218;DHT22;26539;51.064;6.346;2023-07-09T05:35:23;24.90;99.90
5218;DHT22;26539;51.064;6.346;2023-07-09T05:37:51;24.80;99.90
5218;DHT22;26539;51.064;6.346;2023-07-09T05:40:16;25.00;99.90
5218;DHT22;26539;51.064;6.346;2023-07-09T05:42:42;25.00;99.90
5218;DHT22;26539;51.064;6.346;2023-07-09T05:45:07;25.10;99.90
5218;DHT22;26539;51.064;6.346;2023-07-09T05:47:33;25.30;99.90
5218;DHT22;26539;51.064;6.346;2023-07-09T05:49:59;25.60;99.90
5218;DHT22;26539;51.064;6.346;2023-07-09T05:52:24;25.70;99.90
5218;DHT22;26539;51.064;6.346;2023-07-09T05:54:51;25.90;99.90
5218;DHT22;26539;51.064;6.346;2023-07-09T05:57:17;26.10;99.90
5218;DHT22;26539;51.064;6.346;2023-07-09T05:59:42;26.30;99.90
5218;DHT22;26539;51.064;6.346;2023-07-09T06:02:12;26.40;99.90
5218;DHT22;26539;51.064;6.346;2023-07-09T06:04:38;26.50;99.90
5218;DHT22;26539;51.064;6.346;2023-07-09T06:07:04;26.70;99.90
5218;DHT22;26539;51.064;6.346;2023-07-09T06:09:30;26.70;99.90
5218;DHT22;26539;51.064;6.346;2023-07-09T06:11:56;27.10;99.90
5218;DHT22;26539;51.064;6.346;2023-07-09T06:14:21;27.90;99.90
5218;DHT22;26539;51.064;6.346;2023-07-09T06:16:47;29.50;99.90
5218;DHT22;26539;51.064;6.346;2023-07-09T06:19:12;31.80;99.90
5218;DHT22;26539;51.064;6.346;2023-07-09T06:21:39;33.90;99.90
5218;DHT22;26539;51.064;6.346;2023-07-09T06:24:06;35.80;99.90
5218;DHT22;26539;51.064;6.346;2023-07-09T06:26:32;36.90;99.90
5218;DHT22;26539;51.064;6.346;2023-07-09T06:28:58;38.70;93.80
5218;DHT22;26539;51.064;6.346;2023-07-09T06:31:23;40.40;81.30
5218;DHT22;26539;51.064;6.346;2023-07-09T06:33:50;41.60;68.30
5218;DHT22;26539;51.064;6.346;2023-07-09T06:36:17;41.60;52.00
5218;DHT22;26539;51.064;6.346;2023-07-09T06:38:43;42.30;44.60
5218;DHT22;26539;51.064;6.346;2023-07-09T06:41:09;43.50;38.60
5218;DHT22;26539;51.064;6.346;2023-07-09T06:43:35;44.70;33.40
5218;DHT22;26539;51.064;6.346;2023-07-09T06:46:04;45.20;25.80
5218;DHT22;26539;51.064;6.346;2023-07-09T06:48:30;44.80;21.00
5218;DHT22;26539;51.064;6.346;2023-07-09T06:50:57;45.10;16.20
5218;DHT22;26539;51.064;6.346;2023-07-09T06:53:24;44.60;12.00
5218;DHT22;26539;51.064;6.346;2023-07-09T06:55:50;45.50;9.90
5218;DHT22;26539;51.064;6.346;2023-07-09T06:58:18;46.50;8.30
5218;DHT22;26539;51.064;6.346;2023-07-09T07:00:44;47.90;5.70
5218;DHT22;26539;51.064;6.346;2023-07-09T07:03:10;48.50;2.90
5218;DHT22;26539;51.064;6.346;2023-07-09T07:05:35;49.20;1.00
5218;DHT22;26539;51.064;6.346;2023-07-09T07:08:03;49.10;1.00
5218;DHT22;26539;51.064;6.346;2023-07-09T07:10:29;49.80;1.00
5218;DHT22;26539;51.064;6.346;2023-07-09T07:12:55;51.20;1.00
5218;DHT22;26539;51.064;6.346;2023-07-09T07:15:24;52.40;1.00
5218;DHT22;26539;51.064;6.346;2023-07-09T07:17:49;52.60;1.00
5218;DHT22;26539;51.064;6.346;2023-07-09T07:20:15;53.20;1.00
5218;DHT22;26539;51.064;6.346;2023-07-09T07:22:41;53.70;1.00
5218;DHT22;26539;51.064;6.346;2023-07-09T07:25:08;52.40;1.00
5218;DHT22;26539;51.064;6.346;2023-07-09T07:27:34;52.20;1.00
5218;DHT22;26539;51.064;6.346;2023-07-09T07:30:00;52.50;1.00
5218;DHT22;26539;51.064;6.346;2023-07-09T07:32:26;52.60;1.00
5218;DHT22;26539;51.064;6.346;2023-07-09T07:34:51;54.30;1.00
5218;DHT22;26539;51.064;6.346;2023-07-09T07:37:18;54.80;1.00
5218;DHT22;26539;51.064;6.346;2023-07-09T07:39:47;54.60;1.00
5218;DHT22;26539;51.064;6.346;2023-07-09T07:42:13;54.80;1.00
5218;DHT22;26539;51.064;6.346;2023-07-09T07:44:39;54.50;1.00
5218;DHT22;26539;51.064;6.346;2023-07-09T07:47:05;55.10;1.00
5218;DHT22;26539;51.064;6.346;2023-07-09T07:49:31;54.70;1.00
5218;DHT22;26539;51.064;6.346;2023-07-09T07:51:56;54.70;1.00
5218;DHT22;26539;51.064;6.346;2023-07-09T07:54:22;55.40;1.00
5218;DHT22;26539;51.064;6.346;2023-07-09T07:56:47;54.50;1.00
5218;DHT22;26539;51.064;6.346;2023-07-09T07:59:13;54.70;1.00
5218;DHT22;26539;51.064;6.346;2023-07-09T08:01:39;54.80;1.00
5218;DHT22;26539;51.064;6.346;2023-07-09T08:04:05;54.20;1.00
5218;DHT22;26539;51.064;6.346;2023-07-09T08:06:30;52.90;1.00
5218;DHT22;26539;51.064;6.346;2023-07-09T08:08:57;51.20;1.00
5218;DHT22;26539;51.064;6.346;2023-07-09T08:11:23;51.70;1.00
5218;DHT22;26539;51.064;6.346;2023-07-09T08:13:49;51.80;1.00
5218;DHT22;26539;51.064;6.346;2023-07-09T08:16:15;51.60;1.00
5218;DHT22;26539;51.064;6.346;2023-07-09T08:18:43;51.40;1.00
5218;DHT22;26539;51.064;6.346;2023-07-09T08:21:09;51.70;1.00
5218;DHT22;26539;51.064;6.346;2023-07-09T08:23:35;51.60;1.00
5218;DHT22;26539;51.064;6.346;2023-07-09T08:26:02;51.70;1.00
5218;DHT22;26539;51.064;6.346;2023-07-09T08:28:29;52.00;1.00
5218;DHT22;26539;51.064;6.346;2023-07-09T08:30:55;52.10;1.00
5218;DHT22;26539;51.064;6.346;2023-07-09T08:33:22;52.10;1.00
5218;DHT22;26539;51.064;6.346;2023-07-09T08:35:49;52.70;1.00
5218;DHT22;26539;51.064;6.346;2023-07-09T08:38:15;52.80;1.00
5218;DHT22;26539;51.064;6.346;2023-07-09T08:40:42;54.20;1.00
5218;DHT22;26539;51.064;6.346;2023-07-09T08:46:47;54.90;1.00
5218;DHT22;26539;51.064;6.346;2023-07-09T08:48:48;54.00;1.00
5218;DHT22;26539;51.064;6.346;2023-07-09T08:51:17;54.60;1.00
5218;DHT22;26539;51.064;6.346;2023-07-09T08:53:53;55.30;1.00
5218;DHT22;26539;51.064;6.346;2023-07-09T08:56:22;55.50;1.00
5218;DHT22;26539;51.064;6.346;2023-07-09T08:58:49;54.70;1.00
5218;DHT22;26539;51.064;6.346;2023-07-09T09:01:38;54.20;1.00
5218;DHT22;26539;51.064;6.346;2023-07-09T09:04:16;53.70;1.00
5218;DHT22;26539;51.064;6.346;2023-07-09T09:06:49;53.90;1.00
5218;DHT22;26539;51.064;6.346;2023-07-09T09:09:29;53.30;1.00
5218;DHT22;26539;51.064;6.346;2023-07-09T09:12:18;53.70;1.00
5218;DHT22;26539;51.064;6.346;2023-07-09T09:14:52;54.20;1.00
5218;DHT22;26539;51.064;6.346;2023-07-09T09:17:20;53.90;1.00
5218;DHT22;26539;51.064;6.346;2023-07-09T09:20:08;54.80;1.00
5218;DHT22;26539;51.064;6.346;2023-07-09T09:25:31;54.10;1.00
5218;DHT22;26539;51.064;6.346;2023-07-09T09:28:02;53.00;1.00
5218;DHT22;26539;51.064;6.346;2023-07-09T09:30:28;53.00;1.00
5218;DHT22;26539;51.064;6.346;2023-07-09T09:33:08;52.70;1.00
5218;DHT22;26539;51.064;6.346;2023-07-09T09:35:37;53.00;1.00
5218;DHT22;26539;51.064;6.346;2023-07-09T09:38:11;53.20;1.00
5218;DHT22;26539;51.064;6.346;2023-07-09T09:40:37;53.90;1.00
5218;DHT22;26539;51.064;6.346;2023-07-09T09:43:13;54.30;1.00
5218;DHT22;26539;51.064;6.346;2023-07-09T09:45:40;53.90;1.00
5218;DHT22;26539;51.064;6.346;2023-07-09T09:48:18;53.70;1.00
5218;DHT22;26539;51.064;6.346;2023-07-09T09:50:45;53.90;1.00
5218;DHT22;26539;51.064;6.346;2023-07-09T09:53:21;52.90;1.00
5218;DHT22;26539;51.064;6.346;2023-07-09T09:55:48;53.80;1.00
5218;DHT22;26539;51.064;6.346;2023-07-09T09:58:16;52.60;1.00
5218;DHT22;26539;51.064;6.346;2023-07-09T10:00:48;51.40;1.00
5218;DHT22;26539;51.064;6.346;2023-07-09T10:03:14;51.20;1.00
5218;DHT22;26539;51.064;6.346;2023-07-09T10:05:58;52.00;1.00
5218;DHT22;26539;51.064;6.346;2023-07-09T10:08:50;51.70;1.00
5218;DHT22;26539;51.064;6.346;2023-07-09T10:23:00;53.50;1.00
5218;DHT22;26539;51.064;6.346;2023-07-09T10:28:43;53.60;1.00
5218;DHT22;26539;51.064;6.346;2023-07-09T10:34:12;54.80;1.00
5218;DHT22;26539;51.064;6.346;2023-07-09T10:36:48;55.00;1.00
5218;DHT22;26539;51.064;6.346;2023-07-09T10:39:23;54.60;1.00
5218;DHT22;26539;51.064;6.346;2023-07-09T10:41:56;54.10;1.00
5218;DHT22;26539;51.064;6.346;2023-07-09T10:44:35;54.60;1.00
5218;DHT22;26539;51.064;6.346;2023-07-09T10:47:07;55.30;1.00
5218;DHT22;26539;51.064;6.346;2023-07-09T10:49:41;55.20;1.00
5218;DHT22;26539;51.064;6.346;2023-07-09T10:52:19;54.30;1.00
5218;DHT22;26539;51.064;6.346;2023-07-09T10:55:16;53.90;1.00
5218;DHT22;26539;51.064;6.346;2023-07-09T11:00:39;52.10;1.00
5218;DHT22;26539;51.064;6.346;2023-07-09T11:06:27;51.00;1.00
5218;DHT22;26539;51.064;6.346;2023-07-09T11:08:56;50.90;1.00
5218;DHT22;26539;51.064;6.346;2023-07-09T11:11:37;50.80;1.00
5218;DHT22;26539;51.064;6.346;2023-07-09T11:14:10;50.70;1.00
5218;DHT22;26539;51.064;6.346;2023-07-09T11:16:39;51.00;1.00
5218;DHT22;26539;51.064;6.346;2023-07-09T11:19:15;51.50;1.00
5218;DHT22;26539;51.064;6.346;2023-07-09T11:22:05;51.80;1.00
5218;DHT22;26539;51.064;6.346;2023-07-09T11:24:45;51.80;1.00
5218;DHT22;26539;51.064;6.346;2023-07-09T11:27:18;51.90;1.00
5218;DHT22;26539;51.064;6.346;2023-07-09T11:29:48;51.70;1.00
5218;DHT22;26539;51.064;6.346;2023-07-09T11:32:24;51.40;1.00
5218;DHT22;26539;51.064;6.346;2023-07-09T11:34:50;50.30;1.00
5218;DHT22;26539;51.064;6.346;2023-07-09T11:37:16;49.80;1.00
5218;DHT22;26539;51.064;6.346;2023-07-09T11:39:47;49.40;1.00
5218;DHT22;26539;51.064;6.346;2023-07-09T11:42:30;48.90;1.00
5218;DHT22;26539;51.064;6.346;2023-07-09T11:47:28;48.70;1.00
5218;DHT22;26539;51.064;6.346;2023-07-09T11:50:00;48.50;1.00
5218;DHT22;26539;51.064;6.346;2023-07-09T11:52:47;48.50;1.00
5218;DHT22;26539;51.064;6.346;2023-07-09T11:58:17;49.30;1.00
5218;DHT22;26539;51.064;6.346;2023-07-09T12:00:52;49.40;1.00
5218;DHT22;26539;51.064;6.346;2023-07-09T12:03:24;49.50;1.00
5218;DHT22;26539;51.064;6.346;2023-07-09T12:05:53;49.10;1.00
5218;DHT22;26539;51.064;6.346;2023-07-09T12:08:27;49.00;1.00
5218;DHT22;26539;51.064;6.346;2023-07-09T12:10:54;48.70;1.00
5218;DHT22;26539;51.064;6.346;2023-07-09T12:13:19;48.20;1.00
5218;DHT22;26539;51.064;6.346;2023-07-09T12:15:46;47.40;1.00
5218;DHT22;26539;51.064;6.346;2023-07-09T12:18:14;46.70;1.00
5218;DHT22;26539;51.064;6.346;2023-07-09T12:20:42;46.20;1.00
5218;DHT22;26539;51.064;6.346;2023-07-09T12:23:32;45.90;1.00
5218;DHT22;26539;51.064;6.346;2023-07-09T12:26:02;45.70;1.00
5218;DHT22;26539;51.064;6.346;2023-07-09T12:28:29;45.20;1.00
5218;DHT22;26539;51.064;6.346;2023-07-09T12:30:55;45.00;1.00
5218;DHT22;26539;51.064;6.346;2023-07-09T12:33:22;44.60;1.00
5218;DHT22;26539;51.064;6.346;2023-07-09T12:35:57;44.10;1.00
5218;DHT22;26539;51.064;6.346;2023-07-09T12:38:25;43.60;1.00
5218;DHT22;26539;51.064;6.346;2023-07-09T12:40:52;43.20;1.00
5218;DHT22;26539;51.064;6.346;2023-07-09T12:43:25;42.60;1.00
5218;DHT22;26539;51.064;6.346;2023-07-09T12:45:56;42.20;1.00
5218;DHT22;26539;51.064;6.346;2023-07-09T12:48:25;41.90;1.00
5218;DHT22;26539;51.064;6.346;2023-07-09T12:50:51;41.50;1.00
5218;DHT22;26539;51.064;6.346;2023-07-09T12:53:19;41.00;1.00
5218;DHT22;26539;51.064;6.346;2023-07-09T12:55:47;40.30;1.00
5218;DHT22;26539;51.064;6.346;2023-07-09T12:58:25;39.60;1.00
5218;DHT22;26539;51.064;6.346;2023-07-09T13:00:54;39.00;1.00
5218;DHT22;26539;51.064;6.346;2023-07-09T13:03:30;38.60;1.00
5218;DHT22;26539;51.064;6.346;2023-07-09T13:06:02;38.10;1.00
5218;DHT22;26539;51.064;6.346;2023-07-09T13:08:31;37.50;1.00
5218;DHT22;26539;51.064;6.346;2023-07-09T13:10:57;37.10;1.00
5218;DHT22;26539;51.064;6.346;2023-07-09T13:13:24;36.60;1.00
5218;DHT22;26539;51.064;6.346;2023-07-09T13:16:00;36.20;1.00
5218;DHT22;26539;51.064;6.346;2023-07-09T13:18:27;35.70;1.00
5218;DHT22;26539;51.064;6.346;2023-07-09T13:20:55;34.90;1.00
5218;DHT22;26539;51.064;6.346;2023-07-09T13:23:24;34.30;1.00
5218;DHT22;26539;51.064;6.346;2023-07-09T13:25:51;33.90;1.00
5218;DHT22;26539;51.064;6.346;2023-07-09T13:28:31;33.30;1.00
5218;DHT22;26539;51.064;6.346;2023-07-09T13:30:59;32.40;1.00
5218;DHT22;26539;51.064;6.346;2023-07-09T13:33:25;31.70;1.00
5218;DHT22;26539;51.064;6.346;2023-07-09T13:35:51;31.10;2.90
5218;DHT22;26539;51.064;6.346;2023-07-09T13:38:20;30.70;3.40
5218;DHT22;26539;51.064;6.346;2023-07-09T13:40:54;30.40;6.90
5218;DHT22;26539;51.064;6.346;2023-07-09T13:43:29;30.30;11.70
5218;DHT22;26539;51.064;6.346;2023-07-09T13:45:55;30.10;14.40
5218;DHT22;26539;51.064;6.346;2023-07-09T13:48:22;29.80;16.20
5218;DHT22;26539;51.064;6.346;2023-07-09T13:50:51;29.60;16.50
5218;DHT22;26539;51.064;6.346;2023-07-09T13:53:20;29.40;18.70
5218;DHT22;26539;51.064;6.346;2023-07-09T13:55:46;29.20;23.30
5218;DHT22;26539;51.064;6.346;2023-07-09T13:58:14;29.00;29.40
5218;DHT22;26539;51.064;6.346;2023-07-09T14:00:41;28.80;39.00
5218;DHT22;26539;51.064;6.346;2023-07-09T14:03:23;28.70;53.50
5218;DHT22;26539;51.064;6.346;2023-07-09T14:05:50;28.50;96.20
5218;DHT22;26539;51.064;6.346;2023-07-09T14:08:16;28.30;99.90
5218;DHT22;26539;51.064;6.346;2023-07-09T14:10:46;28.10;99.90
5218;DHT22;26539;51.064;6.346;2023-07-09T14:13:15;27.90;99.90
5218;DHT22;26539;51.064;6.346;2023-07-09T14:15:41;27.80;99.90
5218;DHT22;26539;51.064;6.346;2023-07-09T14:18:17;27.60;1.00
5218;DHT22;26539;51.064;6.346;2023-07-09T14:20:43;27.40;1.00
5218;DHT22;26539;51.064;6.346;2023-07-09T14:23:12;27.20;99.90
5218;DHT22;26539;51.064;6.346;2023-07-09T14:25:39;27.10;1.00
5218;DHT22;26539;51.064;6.346;2023-07-09T14:28:11;26.90;1.00
5218;DHT22;26539;51.064;6.346;2023-07-09T14:30:37;26.40;1.00
5218;DHT22;26539;51.064;6.346;2023-07-09T14:33:03;26.00;99.90
5218;DHT22;26539;51.064;6.346;2023-07-09T14:35:30;25.80;1.00
5218;DHT22;26539;51.064;6.346;2023-07-09T14:37:55;25.60;99.90
5218;DHT22;26539;51.064;6.346;2023-07-09T14:40:22;25.50;1.00
5218;DHT22;26539;51.064;6.346;2023-07-09T14:42:49;25.40;99.90
5218;DHT22;26539;51.064;6.346;2023-07-09T14:47:43;25.30;99.90
5218;DHT22;26539;51.064;6.346;2023-07-09T14:50:09;25.30;25.10
5218;DHT22;26539;51.064;6.346;2023-07-09T14:52:35;25.30;10.00
5218;DHT22;26539;51.064;6.346;2023-07-09T14:55:01;25.40;99.90
5218;DHT22;26539;51.064;6.346;2023-07-09T14:57:27;25.50;99.90
5218;DHT22;26539;51.064;6.346;2023-07-09T14:59:55;25.70;1.00
5218;DHT22;26539;51.064;6.346;2023-07-09T15:02:32;25.80;1.00
5218;DHT22;26539;51.064;6.346;2023-07-09T15:04:57;25.90;1.00
5218;DHT22;26539;51.064;6.346;2023-07-09T15:07:23;26.00;99.90
5218;DHT22;26539;51.064;6.346;2023-07-09T15:09:55;26.20;1.00
5218;DHT22;26539;51.064;6.346;2023-07-09T15:12:27;26.30;99.90
5218;DHT22;26539;51.064;6.346;2023-07-09T15:15:15;26.40;99.90
5218;DHT22;26539;51.064;6.346;2023-07-09T15:17:41;26.60;1.00
5218;DHT22;26539;51.064;6.346;2023-07-09T15:20:15;26.80;99.90
5218;DHT22;26539;51.064;6.346;2023-07-09T15:22:41;27.00;99.90
5218;DHT22;26539;51.064;6.346;2023-07-09T15:25:24;27.10;1.00
5218;DHT22;26539;51.064;6.346;2023-07-09T15:27:50;27.20;1.00
5218;DHT22;26539;51.064;6.346;2023-07-09T15:30:19;27.30;99.90
5218;DHT22;26539;51.064;6.346;2023-07-09T15:32:46;27.50;99.90
5218;DHT22;26539;51.064;6.346;2023-07-09T15:35:13;27.70;1.00
5218;DHT22;26539;51.064;6.346;2023-07-09T15:37:39;27.80;1.00
5218;DHT22;26539;51.064;6.346;2023-07-09T15:40:21;27.80;1.00
5218;DHT22;26539;51.064;6.346;2023-07-09T15:42:52;28.00;99.90
5218;DHT22;26539;51.064;6.346;2023-07-09T15:45:19;28.20;99.90
5218;DHT22;26539;51.064;6.346;2023-07-09T15:47:46;28.40;99.90
5218;DHT22;26539;51.064;6.346;2023-07-09T15:50:23;28.50;99.90
5218;DHT22;26539;51.064;6.346;2023-07-09T15:52:51;28.60;99.90
5218;DHT22;26539;51.064;6.346;2023-07-09T15:55:24;28.60;92.00
5218;DHT22;26539;51.064;6.346;2023-07-09T15:57:51;28.60;80.30
5218;DHT22;26539;51.064;6.346;2023-07-09T16:00:24;28.50;20.50
5218;DHT22;26539;51.064;6.346;2023-07-09T16:02:50;28.50;15.60
5218;DHT22;26539;51.064;6.346;2023-07-09T16:05:23;28.60;99.90
5218;DHT22;26539;51.064;6.346;2023-07-09T16:07:50;28.80;99.90
5218;DHT22;26539;51.064;6.346;2023-07-09T16:10:16;28.80;1.00
5218;DHT22;26539;51.064;6.346;2023-07-09T16:12:41;28.90;99.90
5218;DHT22;26539;51.064;6.346;2023-07-09T16:15:12;28.90;1.00
5218;DHT22;26539;51.064;6.346;2023-07-09T16:17:42;29.10;15.40
5218;DHT22;26539;51.064;6.346;2023-07-09T16:20:10;29.30;4.10
5218;DHT22;26539;51.064;6.346;2023-07-09T16:22:37;29.60;1.00
5218;DHT22;26539;51.064;6.346;2023-07-09T16:27:38;29.70;1.00
5218;DHT22;26539;51.064;6.346;2023-07-09T16:30:16;29.80;1.00
5218;DHT22;26539;51.064;6.346;2023-07-09T16:32:42;29.80;99.90
5218;DHT22;26539;51.064;6.346;2023-07-09T16:35:14;29.80;99.90
5218;DHT22;26539;51.064;6.346;2023-07-09T16:37:40;29.70;99.90
5218;DHT22;26539;51.064;6.346;2023-07-09T16:40:22;29.90;99.90
5218;DHT22;26539;51.064;6.346;2023-07-09T16:42:49;29.90;99.90
5218;DHT22;26539;51.064;6.346;2023-07-09T16:45:16;29.70;99.90